createdAt,value
2018-07-27T00:02:00.787Z,18.60
2018-07-27T00:05:03.239Z,18.48
2018-07-27T00:08:05.812Z,18.30
2018-07-27T00:11:08.481Z,18.18
2018-07-27T00:14:10.980Z,18.19
2018-07-27T00:17:13.485Z,18.20
2018-07-27T00:20:15.934Z,18.24
2018-07-27T00:23:18.558Z,18.21
2018-07-27T00:26:21.193Z,18.07
2018-07-27T00:29:23.645Z,17.98
2018-07-27T00:32:26.213Z,17.91
2018-07-27T00:35:28.693Z,17.88
2018-07-27T00:38:31.158Z,17.87
2018-07-27T00:41:33.637Z,17.94
2018-07-27T00:44:36.105Z,17.87
2018-07-27T00:47:38.535Z,17.84
2018-07-27T00:50:41.049Z,17.74
2018-07-27T00:53:43.449Z,17.67
2018-07-27T00:56:45.986Z,17.65
2018-07-27T00:59:48.362Z,17.58
2018-07-27T01:02:57.349Z,17.55
2018-07-27T01:05:59.848Z,17.54
2018-07-27T01:09:02.375Z,17.54
2018-07-27T01:12:04.853Z,17.47
2018-07-27T01:15:07.394Z,17.53
2018-07-27T01:18:09.785Z,17.39
2018-07-27T01:21:12.194Z,17.32
2018-07-27T01:24:14.637Z,17.33
2018-07-27T01:27:16.995Z,17.32
2018-07-27T01:30:19.383Z,17.35
2018-07-27T01:33:21.835Z,17.35
2018-07-27T01:36:24.273Z,17.34
2018-07-27T01:39:26.848Z,17.27
2018-07-27T01:42:29.193Z,17.15
2018-07-27T01:45:31.534Z,16.83
2018-07-27T01:48:34.069Z,16.66
2018-07-27T01:51:36.585Z,16.68
2018-07-27T01:54:38.953Z,16.77
2018-07-27T01:57:41.429Z,16.91
2018-07-27T02:00:43.889Z,17.05
2018-07-27T02:03:46.380Z,17.11
2018-07-27T02:06:48.831Z,17.04
2018-07-27T02:09:51.342Z,16.88
2018-07-27T02:12:53.812Z,16.74
2018-07-27T02:15:56.284Z,16.60
2018-07-27T02:18:58.775Z,16.47
2018-07-27T02:22:01.287Z,16.39
2018-07-27T02:25:03.761Z,16.32
2018-07-27T02:28:06.198Z,16.35
2018-07-27T02:31:08.645Z,16.40
2018-07-27T02:34:11.015Z,16.31
2018-07-27T02:37:13.537Z,16.12
2018-07-27T02:40:15.947Z,16.04
2018-07-27T02:43:18.319Z,15.97
2018-07-27T02:46:20.740Z,16.00
2018-07-27T02:49:23.190Z,16.17
2018-07-27T02:52:25.690Z,16.32
2018-07-27T02:55:28.120Z,16.41
2018-07-27T02:58:30.515Z,16.49
2018-07-27T03:01:32.943Z,16.51
2018-07-27T03:04:35.364Z,16.44
2018-07-27T03:07:37.790Z,16.39
2018-07-27T03:10:40.413Z,16.33
2018-07-27T03:13:43.888Z,16.20
2018-07-27T03:16:46.255Z,16.05
2018-07-27T03:19:48.730Z,15.94
2018-07-27T03:22:51.212Z,15.85
2018-07-27T03:25:55.540Z,15.88
2018-07-27T03:28:57.902Z,15.92
2018-07-27T03:32:00.283Z,16.00
2018-07-27T03:35:02.709Z,16.11
2018-07-27T03:38:05.232Z,16.17
2018-07-27T03:41:09.129Z,16.19
2018-07-27T03:44:11.546Z,16.21
2018-07-27T03:47:13.894Z,16.14
2018-07-27T03:50:16.275Z,15.94
2018-07-27T03:53:18.665Z,15.86
2018-07-27T03:56:21.249Z,15.81
2018-07-27T03:59:23.958Z,15.88
2018-07-27T04:02:27.360Z,16.00
2018-07-27T04:05:29.812Z,16.12
2018-07-27T04:08:32.298Z,16.17
2018-07-27T04:11:35.622Z,16.19
2018-07-27T04:14:37.958Z,16.29
2018-07-27T04:17:44.917Z,16.42
2018-07-27T04:20:47.406Z,16.39
2018-07-27T04:23:49.805Z,16.17
2018-07-27T04:26:52.206Z,16.04
2018-07-27T04:29:54.539Z,16.19
2018-07-27T04:32:57.382Z,16.42
2018-07-27T04:35:59.785Z,16.79
2018-07-27T04:39:02.384Z,19.42
2018-07-27T04:42:04.841Z,22.15
2018-07-27T04:45:07.245Z,24.00
2018-07-27T04:48:09.793Z,25.22
2018-07-27T04:51:12.147Z,26.13
2018-07-27T04:54:14.615Z,26.94
2018-07-27T04:57:16.977Z,27.63
2018-07-27T05:00:19.479Z,28.30
2018-07-27T05:03:21.833Z,28.94
2018-07-27T05:06:24.331Z,29.51
2018-07-27T05:09:26.716Z,29.78
2018-07-27T05:12:29.114Z,30.09
2018-07-27T05:15:31.549Z,30.59
2018-07-27T05:18:33.919Z,31.18
2018-07-27T05:21:36.339Z,31.61
2018-07-27T05:24:39.715Z,32.16
2018-07-27T05:27:42.092Z,32.46
2018-07-27T05:30:44.482Z,32.82
2018-07-27T05:33:46.948Z,32.81
2018-07-27T05:36:49.432Z,32.81
2018-07-27T05:39:51.826Z,33.20
2018-07-27T05:42:54.368Z,33.48
2018-07-27T05:45:56.663Z,33.43
2018-07-27T05:48:59.021Z,33.50
2018-07-27T05:52:01.360Z,33.69
2018-07-27T05:55:03.737Z,33.13
2018-07-27T05:58:06.107Z,33.47
2018-07-27T06:01:08.945Z,33.99
2018-07-27T06:04:11.308Z,33.40
2018-07-27T06:07:14.258Z,33.31
2018-07-27T06:10:16.516Z,34.12
2018-07-27T06:13:18.932Z,34.82
2018-07-27T06:16:21.342Z,35.28
2018-07-27T06:19:23.733Z,35.78
2018-07-27T06:22:26.182Z,35.81
2018-07-27T06:25:28.732Z,35.23
2018-07-27T06:28:31.204Z,34.12
2018-07-27T06:31:33.936Z,35.04
2018-07-27T06:34:36.386Z,35.73
2018-07-27T06:37:38.814Z,36.56
2018-07-27T06:40:41.176Z,34.79
2018-07-27T06:43:43.597Z,34.72
2018-07-27T06:46:45.968Z,34.35
2018-07-27T06:49:48.374Z,33.80
2018-07-27T06:52:50.769Z,33.65
2018-07-27T06:55:53.354Z,34.14
2018-07-27T06:58:55.906Z,35.26
2018-07-27T07:01:58.370Z,35.48
2018-07-27T07:05:00.812Z,35.83
2018-07-27T07:08:03.176Z,35.46
2018-07-27T07:11:05.640Z,35.66
2018-07-27T07:14:08.514Z,34.96
2018-07-27T07:17:10.972Z,34.34
2018-07-27T07:20:13.469Z,34.84
2018-07-27T07:23:15.992Z,34.49
2018-07-27T07:26:19.195Z,35.29
2018-07-27T07:29:21.601Z,35.52
2018-07-27T07:32:24.129Z,33.68
2018-07-27T07:35:26.520Z,34.01
2018-07-27T07:38:28.922Z,33.70
2018-07-27T07:41:31.286Z,34.53
2018-07-27T07:44:33.622Z,34.45
2018-07-27T07:47:36.022Z,34.98
2018-07-27T07:50:39.624Z,35.51
2018-07-27T07:53:42.118Z,35.09
2018-07-27T07:56:44.535Z,35.66
2018-07-27T07:59:46.913Z,35.50
2018-07-27T08:02:49.313Z,35.95
2018-07-27T08:05:51.656Z,35.28
2018-07-27T08:08:54.585Z,34.07
2018-07-27T08:11:56.886Z,33.37
2018-07-27T08:14:59.252Z,33.03
2018-07-27T08:18:01.578Z,32.17
2018-07-27T08:21:04.096Z,31.10
2018-07-27T08:24:06.706Z,31.24
2018-07-27T08:27:09.117Z,31.40
2018-07-27T08:30:13.763Z,31.77
2018-07-27T08:33:16.183Z,32.20
2018-07-27T08:36:18.671Z,32.26
2018-07-27T08:39:22.360Z,32.79
2018-07-27T08:42:24.831Z,32.54
2018-07-27T08:45:27.356Z,32.64
2018-07-27T08:48:29.636Z,33.03
2018-07-27T08:54:40.346Z,33.34
2018-07-27T08:57:42.728Z,33.43
2018-07-27T09:00:50.892Z,33.37
2018-07-27T09:03:53.489Z,32.80
2018-07-27T09:06:55.872Z,32.02
2018-07-27T09:09:58.318Z,32.21
2018-07-27T09:13:00.729Z,32.58
2018-07-27T09:16:03.182Z,33.07
2018-07-27T09:19:05.742Z,32.67
2018-07-27T09:22:08.206Z,33.33
2018-07-27T09:25:10.927Z,33.93
2018-07-27T09:28:13.056Z,33.83
2018-07-27T09:31:15.510Z,33.81
2018-07-27T09:34:17.851Z,33.69
2018-07-27T09:37:20.106Z,33.76
2018-07-27T09:40:23.636Z,33.99
2018-07-27T09:43:25.977Z,33.94
2018-07-27T09:46:28.492Z,34.11
2018-07-27T09:49:30.927Z,34.08
2018-07-27T09:53:04.309Z,34.03
2018-07-27T09:56:06.988Z,33.96
2018-07-27T09:59:09.407Z,34.12
2018-07-27T10:02:11.818Z,33.62
2018-07-27T10:05:15.222Z,33.89
2018-07-27T10:08:17.549Z,34.13
2018-07-27T10:11:20.505Z,34.40
2018-07-27T10:14:23.135Z,33.68
2018-07-27T10:17:25.560Z,33.75
2018-07-27T10:20:28.954Z,34.02
2018-07-27T10:23:31.366Z,34.26
2018-07-27T10:26:33.789Z,33.50
2018-07-27T10:29:36.171Z,33.37
2018-07-27T10:32:38.688Z,33.42
2018-07-27T10:35:41.232Z,33.00
2018-07-27T10:38:43.764Z,33.54
2018-07-27T10:41:46.182Z,33.43
2018-07-27T10:44:49.316Z,34.09
2018-07-27T11:00:52.456Z,35.57
2018-07-27T11:10:19.490Z,35.07
2018-07-27T11:13:22.848Z,35.14
2018-07-27T11:27:29.097Z,34.22
2018-07-27T11:30:31.595Z,33.78
2018-07-27T11:33:33.962Z,34.51
2018-07-27T11:36:52.580Z,35.41
2018-07-27T11:39:55.402Z,35.47
2018-07-27T11:44:00.899Z,35.45
2018-07-27T11:47:03.539Z,35.60
2018-07-27T11:51:09.591Z,35.55
2018-07-27T11:54:14.630Z,34.89
2018-07-27T11:57:17.428Z,34.83
2018-07-27T12:00:19.930Z,35.67
2018-07-27T12:03:27.758Z,35.94
2018-07-27T12:06:30.362Z,35.78
2018-07-27T12:09:32.802Z,36.08
2018-07-27T12:12:35.348Z,36.28
2018-07-27T12:15:38.011Z,36.03
2018-07-27T12:18:40.387Z,36.09
